createdAt,value
2018-08-30T00:01:02.303Z,52.94
2018-08-30T00:02:12.258Z,53.03
2018-08-30T00:03:22.207Z,53.13
2018-08-30T00:04:31.372Z,52.94
2018-08-30T00:05:41.032Z,52.94
2018-08-30T00:06:50.965Z,52.94
2018-08-30T00:08:00.643Z,53.03
2018-08-30T00:09:10.569Z,53.13
2018-08-30T00:10:20.279Z,53.13
2018-08-30T00:11:30.006Z,53.13
2018-08-30T00:12:39.163Z,53.23
2018-08-30T00:13:48.069Z,52.94
2018-08-30T00:14:57.508Z,53.13
2018-08-30T00:16:06.425Z,53.33
2018-08-30T00:17:15.592Z,53.45
2018-08-30T00:18:25.013Z,53.52
2018-08-30T00:19:34.425Z,53.13
2018-08-30T00:20:44.134Z,53.61
2018-08-30T00:21:53.581Z,53.55
2018-08-30T00:23:02.763Z,53.61
2018-08-30T00:24:12.442Z,53.61
2018-08-30T00:25:21.877Z,53.33
2018-08-30T00:26:31.568Z,53.42
2018-08-30T00:27:40.741Z,53.33
2018-08-30T00:28:49.657Z,53.52
2018-08-30T00:29:58.829Z,53.42
2018-08-30T00:31:08.765Z,53.42
2018-08-30T00:32:18.200Z,53.42
2018-08-30T00:33:27.627Z,53.42
2018-08-30T00:34:36.534Z,53.33
2018-08-30T00:35:45.712Z,53.42
2018-08-30T00:36:54.884Z,53.33
2018-08-30T00:38:04.337Z,53.33
2018-08-30T00:39:13.754Z,53.42
2018-08-30T00:40:23.161Z,53.33
2018-08-30T00:41:32.842Z,53.42
2018-08-30T00:42:41.750Z,53.33
2018-08-30T00:43:51.435Z,53.33
2018-08-30T00:45:00.859Z,53.42
2018-08-30T00:46:10.290Z,53.03
2018-08-30T00:47:19.956Z,53.03
2018-08-30T00:48:28.596Z,53.13
2018-08-30T00:49:38.275Z,53.23
2018-08-30T00:50:47.439Z,53.23
2018-08-30T00:51:56.595Z,53.23
2018-08-30T00:53:06.268Z,53.03
2018-08-30T00:54:15.427Z,52.94
2018-08-30T00:55:25.091Z,53.91
2018-08-30T00:56:34.301Z,53.13
2018-08-30T00:57:43.714Z,53.13
2018-08-30T00:58:53.138Z,53.71
2018-08-30T01:00:02.545Z,53.81
2018-08-30T01:01:11.722Z,53.13
2018-08-30T01:02:20.874Z,53.42
2018-08-30T01:03:30.829Z,53.13
2018-08-30T01:04:39.747Z,53.23
2018-08-30T01:05:49.434Z,53.81
2018-08-30T01:06:59.366Z,53.52
2018-08-30T01:08:08.791Z,53.13
2018-08-30T01:09:18.455Z,53.13
2018-08-30T01:10:27.361Z,53.13
2018-08-30T01:11:36.808Z,53.13
2018-08-30T01:12:46.228Z,53.13
2018-08-30T01:13:55.390Z,53.13
2018-08-30T01:15:04.567Z,53.91
2018-08-30T01:16:13.717Z,53.13
2018-08-30T01:17:22.612Z,53.03
2018-08-30T01:18:32.033Z,53.42
2018-08-30T01:19:41.968Z,53.71
2018-08-30T01:20:51.393Z,53.13
2018-08-30T01:22:00.550Z,53.13
2018-08-30T01:23:09.956Z,53.91
2018-08-30T01:24:19.385Z,53.71
2018-08-30T01:25:28.585Z,53.23
2018-08-30T01:26:37.492Z,53.23
2018-08-30T01:27:46.919Z,53.23
2018-08-30T01:28:56.329Z,53.42
2018-08-30T01:30:05.493Z,53.91
2018-08-30T01:31:15.175Z,53.23
2018-08-30T01:32:24.357Z,53.13
2018-08-30T01:33:33.776Z,53.71
2018-08-30T01:34:42.941Z,53.13
2018-08-30T01:35:52.124Z,53.13
2018-08-30T01:37:01.298Z,53.71
2018-08-30T01:38:10.980Z,53.13
2018-08-30T01:39:20.907Z,52.94
2018-08-30T01:40:30.067Z,53.52
2018-08-30T01:41:39.759Z,53.23
2018-08-30T01:42:48.931Z,53.23
2018-08-30T01:43:58.087Z,53.52
2018-08-30T01:45:08.028Z,53.42
2018-08-30T01:46:17.237Z,53.23
2018-08-30T01:47:26.912Z,53.33
2018-08-30T01:48:35.817Z,53.23
2018-08-30T01:49:44.971Z,53.33
2018-08-30T01:50:54.391Z,53.52
2018-08-30T01:52:03.797Z,53.42
2018-08-30T01:53:13.213Z,53.61
2018-08-30T01:54:22.636Z,53.42
2018-08-30T01:55:32.354Z,53.61
2018-08-30T01:56:41.518Z,53.42
2018-08-30T01:57:50.737Z,53.13
2018-08-30T01:59:00.180Z,53.61
2018-08-30T02:00:10.121Z,53.13
2018-08-30T02:01:19.794Z,53.33
2018-08-30T02:02:29.210Z,53.13
2018-08-30T02:03:38.628Z,53.61
2018-08-30T02:04:47.791Z,53.42
2018-08-30T02:05:57.242Z,53.33
2018-08-30T02:07:06.658Z,53.91
2018-08-30T02:08:15.831Z,53.33
2018-08-30T02:09:24.996Z,53.71
2018-08-30T02:10:34.171Z,53.61
2018-08-30T02:11:43.331Z,53.52
2018-08-30T02:12:52.237Z,53.81
2018-08-30T02:14:01.946Z,53.91
2018-08-30T02:15:11.131Z,53.61
2018-08-30T02:16:20.568Z,53.71
2018-08-30T02:17:29.989Z,53.52
2018-08-30T02:18:39.914Z,53.91
2018-08-30T02:19:49.612Z,53.52
2018-08-30T02:20:59.579Z,53.52
2018-08-30T02:22:09.008Z,53.23
2018-08-30T02:23:18.440Z,53.23
2018-08-30T02:24:28.386Z,53.61
2018-08-30T02:25:37.547Z,53.23
2018-08-30T02:26:46.975Z,53.33
2018-08-30T02:27:56.148Z,53.23
2018-08-30T02:29:05.312Z,53.33
2018-08-30T02:30:14.217Z,53.33
2018-08-30T02:31:23.642Z,53.23
2018-08-30T02:32:33.093Z,53.52
2018-08-30T02:33:42.514Z,53.23
2018-08-30T02:34:51.409Z,53.33
2018-08-30T02:36:00.577Z,53.23
2018-08-30T02:37:10.010Z,53.23
2018-08-30T02:38:19.707Z,53.23
2018-08-30T02:39:29.660Z,53.42
2018-08-30T02:40:38.827Z,53.33
2018-08-30T02:41:48.530Z,53.42
2018-08-30T02:42:58.483Z,53.13
2018-08-30T02:44:08.159Z,53.23
2018-08-30T02:45:17.077Z,53.33
2018-08-30T02:46:26.517Z,53.42
2018-08-30T02:47:35.932Z,53.23
2018-08-30T02:48:45.613Z,53.71
2018-08-30T02:49:55.038Z,53.71
2018-08-30T02:51:04.491Z,53.52
2018-08-30T02:52:14.204Z,53.42
2018-08-30T02:53:23.634Z,53.23
2018-08-30T02:54:33.341Z,53.33
2018-08-30T02:55:42.314Z,53.61
2018-08-30T02:56:51.251Z,53.52
2018-08-30T02:58:00.683Z,53.71
2018-08-30T02:59:10.111Z,53.13
2018-08-30T03:00:19.277Z,53.23
2018-08-30T03:01:28.698Z,53.23
2018-08-30T03:02:37.857Z,53.33
2018-08-30T03:03:47.567Z,53.33
2018-08-30T03:04:56.759Z,53.23
2018-08-30T03:06:06.470Z,53.71
2018-08-30T03:07:16.393Z,53.23
2018-08-30T03:08:25.810Z,53.33
2018-08-30T03:09:34.979Z,53.33
2018-08-30T03:10:44.413Z,53.52
2018-08-30T03:11:53.840Z,53.52
2018-08-30T03:13:03.777Z,53.91
2018-08-30T03:14:12.961Z,53.88
2018-08-30T03:15:22.640Z,53.91
2018-08-30T03:16:32.088Z,53.33
2018-08-30T03:17:41.262Z,53.33
2018-08-30T03:18:50.704Z,53.61
2018-08-30T03:19:59.880Z,53.69
2018-08-30T03:21:09.302Z,53.61
2018-08-30T03:22:18.714Z,53.81
2018-08-30T03:23:28.418Z,53.59
2018-08-30T03:24:37.850Z,53.81
2018-08-30T03:25:47.029Z,53.49
2018-08-30T03:26:56.485Z,53.33
2018-08-30T03:28:05.905Z,53.3
2018-08-30T03:29:15.585Z,53.49
2018-08-30T03:30:25.696Z,53.61
2018-08-30T03:31:35.410Z,53.97
2018-08-30T03:32:44.868Z,53.42
2018-08-30T03:33:54.050Z,53.81
2018-08-30T03:35:03.762Z,53.59
2018-08-30T03:36:13.205Z,53.59
2018-08-30T03:37:22.604Z,53.42
2018-08-30T03:38:32.726Z,53.49
2018-08-30T03:39:42.452Z,53.39
2018-08-30T03:40:52.157Z,53.49
2018-08-30T03:42:01.602Z,53.52
2018-08-30T03:43:11.046Z,53.39
2018-08-30T03:44:20.219Z,53.91
2018-08-30T03:45:29.649Z,53.42
2018-08-30T03:46:39.336Z,53.42
2018-08-30T03:47:48.537Z,53.59
2018-08-30T03:48:58.229Z,53.33
2018-08-30T03:50:07.932Z,53.39
2018-08-30T03:51:17.095Z,54.17
2018-08-30T03:52:26.005Z,54.07
2018-08-30T03:53:35.447Z,53.81
2018-08-30T03:54:45.403Z,53.61
2018-08-30T03:55:55.077Z,53.42
2018-08-30T03:57:04.509Z,53.52
2018-08-30T03:58:13.926Z,53.78
2018-08-30T03:59:23.348Z,53.78
2018-08-30T04:00:32.781Z,53.23
2018-08-30T04:01:41.947Z,53.3
2018-08-30T04:02:51.382Z,53.91
2018-08-30T04:04:01.080Z,53.42
2018-08-30T04:05:10.794Z,53.13
2018-08-30T04:06:20.478Z,54
2018-08-30T04:07:30.411Z,53.88
2018-08-30T04:08:40.090Z,53.49
2018-08-30T04:09:49.874Z,53.71
2018-08-30T04:10:59.689Z,53.59
2018-08-30T04:12:08.617Z,54.1
2018-08-30T04:13:17.602Z,54.46
2018-08-30T04:14:26.889Z,53.52
2018-08-30T04:15:36.356Z,53.69
2018-08-30T04:16:45.528Z,54
2018-08-30T04:17:54.700Z,53.88
2018-08-30T04:19:03.614Z,54.39
2018-08-30T04:20:13.051Z,53.39
2018-08-30T04:21:22.739Z,53.61
2018-08-30T04:22:32.159Z,53.49
2018-08-30T04:23:41.575Z,53.3
2018-08-30T04:24:51.519Z,53.49
2018-08-30T04:26:00.977Z,53.59
2018-08-30T04:27:10.908Z,53.49
2018-08-30T04:28:20.643Z,53.61
2018-08-30T04:29:30.065Z,53.52
2018-08-30T04:30:39.005Z,53.97
2018-08-30T04:31:48.171Z,54.07
2018-08-30T04:32:57.587Z,53.97
2018-08-30T04:34:07.013Z,53.59
2018-08-30T04:35:16.195Z,54.27
2018-08-30T04:36:25.360Z,53.52
2018-08-30T04:37:34.560Z,53.49
2018-08-30T04:38:43.986Z,53.81
2018-08-30T04:39:53.417Z,54
2018-08-30T04:41:03.379Z,53.49
2018-08-30T04:42:13.459Z,53.52
2018-08-30T04:43:23.236Z,53.61
2018-08-30T04:44:32.967Z,53.2
2018-08-30T04:45:42.395Z,53.3
2018-08-30T04:46:51.828Z,53.71
2018-08-30T04:48:00.995Z,53.03
2018-08-30T04:49:10.681Z,53.52
2018-08-30T04:50:20.300Z,53.71
2018-08-30T04:51:29.724Z,53.13
2018-08-30T04:52:38.885Z,53.13
2018-08-30T04:53:48.060Z,53.33
2018-08-30T04:54:57.217Z,53.13
2018-08-30T04:56:06.389Z,53.33
2018-08-30T04:57:16.114Z,53.42
2018-08-30T04:58:25.284Z,53.42
2018-08-30T04:59:34.453Z,53.33
2018-08-30T05:00:44.568Z,53.52
2018-08-30T05:01:54.148Z,53.33
2018-08-30T05:03:03.357Z,53.23
2018-08-30T05:04:13.036Z,53.61
2018-08-30T05:05:22.208Z,53.52
2018-08-30T05:06:31.614Z,53.23
2018-08-30T05:07:40.810Z,53.13
2018-08-30T05:08:50.667Z,53.33
2018-08-30T05:10:00.260Z,53.33
2018-08-30T05:11:09.620Z,53.33
2018-08-30T05:12:19.046Z,53.23
2018-08-30T05:13:28.479Z,53.13
2018-08-30T05:14:37.910Z,53.13
2018-08-30T05:15:47.619Z,53.13
2018-08-30T05:16:57.047Z,53.13
2018-08-30T05:18:06.485Z,53.13
2018-08-30T05:19:15.948Z,53.13
2018-08-30T05:20:25.889Z,53.13
2018-08-30T05:21:35.868Z,53.03
2018-08-30T05:22:44.757Z,53.42
2018-08-30T05:23:53.926Z,52.94
2018-08-30T05:25:03.096Z,53.33
2018-08-30T05:26:12.775Z,53.13
2018-08-30T05:27:22.198Z,53.23
2018-08-30T05:28:31.674Z,53.23
2018-08-30T05:29:41.518Z,53.23
2018-08-30T05:30:50.848Z,52.94
2018-08-30T05:31:59.760Z,53.13
2018-08-30T05:33:09.196Z,53.13
2018-08-30T05:34:18.612Z,53.33
2018-08-30T05:35:28.035Z,53.23
2018-08-30T05:36:37.780Z,53.33
2018-08-30T05:37:46.436Z,53.23
2018-08-30T05:38:55.924Z,53.33
2018-08-30T05:40:05.362Z,53.33
2018-08-30T05:41:15.042Z,53.42
2018-08-30T05:42:24.203Z,53.45
2018-08-30T05:43:33.367Z,53.42
2018-08-30T05:44:43.147Z,53.52
2018-08-30T05:45:51.982Z,53.03
2018-08-30T05:47:01.207Z,53.13
2018-08-30T05:48:10.361Z,52.65
2018-08-30T05:49:19.821Z,52.97
2018-08-30T05:50:28.736Z,52.97
2018-08-30T05:51:38.193Z,52.97
2018-08-30T05:52:47.351Z,52.39
2018-08-30T05:53:57.027Z,52.94
2018-08-30T05:55:06.434Z,52.84
2018-08-30T05:56:15.349Z,52.94
2018-08-30T05:57:24.264Z,53.03
2018-08-30T05:58:33.458Z,52.36
2018-08-30T05:59:42.383Z,52.77
2018-08-30T06:00:52.096Z,52.94
2018-08-30T06:02:01.776Z,52.45
2018-08-30T06:03:11.470Z,52.36
2018-08-30T06:04:20.637Z,52.97
2018-08-30T06:05:29.819Z,52.97
2018-08-30T06:06:39.245Z,52.58
2018-08-30T06:07:48.665Z,52.55
2018-08-30T06:08:57.835Z,52.75
2018-08-30T06:10:07.512Z,52.48
2018-08-30T06:11:16.967Z,52.45
2018-08-30T06:12:26.905Z,52.45
2018-08-30T06:13:36.337Z,52.36
2018-08-30T06:14:45.787Z,53.35
2018-08-30T06:15:54.951Z,52.97
2018-08-30T06:17:04.124Z,52.97
2018-08-30T06:18:13.037Z,52.45
2018-08-30T06:19:22.489Z,52.48
2018-08-30T06:20:32.185Z,52.45
2018-08-30T06:21:41.366Z,52.94
2018-08-30T06:22:50.799Z,52.75
2018-08-30T06:24:00.491Z,53.06
2018-08-30T06:25:09.930Z,52.94
2018-08-30T06:26:19.858Z,53.13
2018-08-30T06:27:29.020Z,53.06
2018-08-30T06:28:38.202Z,53.03
2018-08-30T06:29:47.359Z,53.16
2018-08-30T06:30:57.318Z,52.67
2018-08-30T06:32:06.751Z,52.94
2018-08-30T06:33:16.176Z,53.06
2018-08-30T06:34:25.334Z,52.75
2018-08-30T06:35:35.158Z,52.94
2018-08-30T06:36:44.088Z,52.97
2018-08-30T06:37:53.522Z,53.03
2018-08-30T06:39:02.181Z,53.03
2018-08-30T06:40:11.374Z,53.13
2018-08-30T06:41:20.540Z,53.03
2018-08-30T06:42:30.230Z,53.13
2018-08-30T06:43:39.648Z,53.06
2018-08-30T06:44:49.090Z,53.03
2018-08-30T06:45:58.503Z,52.97
2018-08-30T06:47:07.670Z,53.03
2018-08-30T06:48:16.585Z,52.97
2018-08-30T06:49:26.275Z,52.94
2018-08-30T06:50:35.172Z,53.03
2018-08-30T06:51:45.097Z,52.67
2018-08-30T06:52:54.518Z,53.52
2018-08-30T06:54:03.948Z,52.75
2018-08-30T06:55:13.376Z,53.33
2018-08-30T06:56:22.578Z,53.03
2018-08-30T06:57:32.590Z,53.33
2018-08-30T06:58:42.012Z,53.03
2018-08-30T06:59:51.712Z,53.16
2018-08-30T07:01:01.134Z,53.23
2018-08-30T07:02:10.303Z,53.33
2018-08-30T07:03:19.475Z,53.42
2018-08-30T07:04:28.921Z,53.42
2018-08-30T07:05:38.078Z,53.55
2018-08-30T07:06:47.756Z,53.52
2018-08-30T07:07:57.212Z,52.94
2018-08-30T07:09:07.328Z,53.03
2018-08-30T07:10:17.003Z,53.06
2018-08-30T07:11:26.429Z,52.75
2018-08-30T07:12:36.372Z,52.58
2018-08-30T07:13:45.514Z,52.58
2018-08-30T07:14:54.552Z,52.67
2018-08-30T07:16:03.869Z,52.67
2018-08-30T07:17:13.577Z,52.77
2018-08-30T07:18:22.996Z,52.58
2018-08-30T07:19:32.942Z,52.77
2018-08-30T07:20:42.633Z,52.67
2018-08-30T07:21:51.526Z,52.58
2018-08-30T07:23:00.171Z,52.58
2018-08-30T07:24:09.968Z,52.77
2018-08-30T07:25:19.744Z,52.77
2018-08-30T07:26:28.931Z,52.77
2018-08-30T07:27:38.376Z,52.87
2018-08-30T07:28:47.549Z,52.77
2018-08-30T07:29:57.231Z,52.67
2018-08-30T07:31:06.134Z,52.67
2018-08-30T07:32:16.074Z,52.77
2018-08-30T07:33:24.989Z,52.67
2018-08-30T07:34:34.570Z,52.77
2018-08-30T07:35:43.989Z,52.97
2018-08-30T07:36:52.908Z,52.67
2018-08-30T07:38:02.599Z,52.87
2018-08-30T07:39:12.310Z,52.97
2018-08-30T07:40:21.739Z,53.16
2018-08-30T07:41:31.438Z,53.06
2018-08-30T07:42:40.865Z,52.97
2018-08-30T07:43:50.013Z,53.06
2018-08-30T07:44:58.659Z,52.48
2018-08-30T07:46:08.324Z,52.48
2018-08-30T07:47:18.169Z,52.58
2018-08-30T07:48:28.032Z,52.48
2018-08-30T07:49:36.943Z,52.58
2018-08-30T07:50:45.954Z,52.48
2018-08-30T07:51:56.112Z,52.67
2018-08-30T07:53:06.066Z,52.39
2018-08-30T07:54:15.236Z,52.58
2018-08-30T07:55:24.749Z,52.58
2018-08-30T07:56:34.201Z,52.61
2018-08-30T07:57:43.373Z,52.58
2018-08-30T08:00:02.539Z,52.58
2018-08-30T08:01:13.170Z,52.61
2018-08-30T08:02:22.338Z,52.58
2018-08-30T08:03:31.528Z,52.61
2018-08-30T08:04:40.962Z,52.58
2018-08-30T08:05:50.194Z,52.61
2018-08-30T08:06:59.875Z,52.61
2018-08-30T08:08:09.670Z,52.48
2018-08-30T08:09:18.584Z,52.99
2018-08-30T08:10:28.276Z,52.51
2018-08-30T08:11:37.450Z,52.7
2018-08-30T08:12:47.668Z,53.16
2018-08-30T08:13:56.619Z,52.58
2018-08-30T08:15:05.783Z,52.8
2018-08-30T08:16:15.715Z,52.99
2018-08-30T08:17:25.389Z,52.61
2018-08-30T08:18:34.816Z,52.67
2018-08-30T08:19:44.497Z,52.7
2018-08-30T08:20:53.939Z,52.97
2018-08-30T08:22:03.367Z,52.87
2018-08-30T08:23:12.798Z,52.97
2018-08-30T08:24:21.967Z,52.99
2018-08-30T08:25:30.908Z,52.8
2018-08-30T08:26:40.942Z,52.89
2018-08-30T08:27:50.618Z,53.06
2018-08-30T08:28:59.790Z,52.99
2018-08-30T08:30:08.959Z,52.99
2018-08-30T08:31:18.291Z,52.99
2018-08-30T08:32:28.098Z,52.99
2018-08-30T08:33:37.523Z,53.09
2018-08-30T08:34:46.956Z,52.99
2018-08-30T08:35:56.137Z,53.19
2018-08-30T08:37:05.804Z,52.8
2018-08-30T08:38:15.233Z,52.99
2018-08-30T08:39:24.668Z,52.8
2018-08-30T08:40:33.876Z,52.8
2018-08-30T08:41:43.309Z,53.09
2018-08-30T08:42:52.499Z,52.97
2018-08-30T08:44:01.926Z,52.99
2018-08-30T08:45:11.615Z,52.8
2018-08-30T08:46:21.037Z,52.99
2018-08-30T08:47:30.710Z,53.09
2018-08-30T08:48:39.631Z,52.7
2018-08-30T08:49:48.554Z,52.97
2018-08-30T08:50:57.736Z,52.99
2018-08-30T08:52:07.203Z,52.7
2018-08-30T08:53:16.655Z,52.99
2018-08-30T08:54:25.883Z,52.61
2018-08-30T08:55:34.549Z,52.99
2018-08-30T08:56:44.225Z,52.97
2018-08-30T08:57:53.376Z,52.99
2018-08-30T08:59:02.790Z,52.99
2018-08-30T09:00:12.366Z,52.99
2018-08-30T09:01:21.360Z,53.09
2018-08-30T09:02:31.291Z,52.61
2018-08-30T09:03:40.514Z,52.8
2018-08-30T09:04:49.417Z,52.99
2018-08-30T09:05:58.838Z,52.61
2018-08-30T09:07:08.469Z,52.51
2018-08-30T09:08:18.867Z,52.61
2018-08-30T09:09:28.291Z,52.99
2018-08-30T09:10:37.987Z,53.06
2018-08-30T09:11:47.451Z,52.51
2018-08-30T09:12:57.124Z,52.7
2018-08-30T09:14:06.561Z,52.7
2018-08-30T09:15:15.987Z,52.22
2018-08-30T09:16:25.675Z,52.41
2018-08-30T09:17:34.321Z,52.61
2018-08-30T09:18:44.252Z,52.61
2018-08-30T09:19:53.732Z,52.51
2018-08-30T09:21:03.672Z,52.41
2018-08-30T09:22:13.099Z,52.61
2018-08-30T09:23:22.075Z,52.61
2018-08-30T09:24:31.511Z,52.61
2018-08-30T09:25:41.194Z,52.61
2018-08-30T09:26:50.475Z,52.51
2018-08-30T09:28:00.503Z,52.61
2018-08-30T09:29:09.916Z,52.51
2018-08-30T09:30:19.862Z,52.7
2018-08-30T09:31:29.278Z,52.61
2018-08-30T09:32:38.962Z,52.51
2018-08-30T09:33:48.656Z,52.7
2018-08-30T09:34:58.842Z,52.61
2018-08-30T09:36:08.013Z,52.51
2018-08-30T09:37:17.445Z,52.41
2018-08-30T09:38:26.616Z,52.41
2018-08-30T09:39:35.540Z,52.61
2018-08-30T09:40:45.217Z,52.41
2018-08-30T09:41:54.410Z,52.51
2018-08-30T09:43:03.330Z,52.51
2018-08-30T09:44:11.977Z,52.41
2018-08-30T09:45:21.406Z,52.41
2018-08-30T09:46:30.308Z,52.51
2018-08-30T09:47:39.750Z,52.41
2018-08-30T09:48:49.466Z,52.8
2018-08-30T09:49:58.643Z,52.8
2018-08-30T09:51:08.098Z,52.61
2018-08-30T09:52:16.767Z,52.8
2018-08-30T09:53:25.950Z,52.51
2018-08-30T09:54:34.618Z,52.61
2018-08-30T09:55:44.537Z,52.8
2018-08-30T09:56:54.942Z,52.7
2018-08-30T09:58:03.915Z,52.7
2018-08-30T09:59:13.344Z,52.7
2018-08-30T10:00:22.254Z,52.8
2018-08-30T10:01:31.425Z,52.7
2018-08-30T10:02:41.109Z,52.7
2018-08-30T10:03:50.103Z,52.8
2018-08-30T10:04:59.811Z,52.7
2018-08-30T10:06:09.524Z,52.89
2018-08-30T10:07:18.504Z,52.8
2018-08-30T10:08:28.184Z,52.89
2018-08-30T10:09:37.365Z,52.7
2018-08-30T10:10:46.844Z,52.89
2018-08-30T10:11:56.279Z,52.8
2018-08-30T10:13:05.448Z,52.31
2018-08-30T10:14:14.896Z,52.8
2018-08-30T10:15:24.578Z,52.61
2018-08-30T10:16:34.009Z,52.22
2018-08-30T10:17:43.440Z,52.22
2018-08-30T10:18:52.410Z,52.8
2018-08-30T10:20:02.453Z,52.7
2018-08-30T10:21:11.873Z,52.12
2018-08-30T10:22:21.388Z,52.31
2018-08-30T10:23:30.552Z,52.22
2018-08-30T10:24:39.962Z,52.22
2018-08-30T10:25:49.127Z,52.22
2018-08-30T10:26:58.936Z,52.51
2018-08-30T10:28:08.388Z,52.12
2018-08-30T10:29:17.568Z,52.22
2018-08-30T10:30:26.788Z,52.31
2018-08-30T10:31:36.384Z,52.12
2018-08-30T10:32:46.156Z,52.31
2018-08-30T10:33:55.074Z,52.31
2018-08-30T10:35:04.512Z,52.41
2018-08-30T10:36:13.695Z,52.22
2018-08-30T10:37:23.402Z,52.02
2018-08-30T10:38:32.829Z,52.12
2018-08-30T10:39:42.268Z,52.41
2018-08-30T10:40:51.950Z,52.31
2018-08-30T10:42:01.621Z,52.31
2018-08-30T10:43:10.800Z,52.31
2018-08-30T10:44:19.995Z,52.22
2018-08-30T10:45:29.688Z,52.22
2018-08-30T10:46:39.110Z,52.12
2018-08-30T10:47:48.274Z,51.93
2018-08-30T10:48:57.959Z,52.22
2018-08-30T10:50:07.374Z,52.12
2018-08-30T10:51:16.836Z,52.12
2018-08-30T10:52:25.997Z,52.22
2018-08-30T10:53:35.162Z,52.22
2018-08-30T10:54:44.872Z,52.12
2018-08-30T10:55:53.785Z,52.22
2018-08-30T10:57:02.950Z,52.22
2018-08-30T10:58:12.155Z,52.12
2018-08-30T10:59:21.866Z,52.22
2018-08-30T11:00:31.559Z,52.02
2018-08-30T11:01:40.720Z,51.93
2018-08-30T11:02:50.164Z,52.22
2018-08-30T11:03:59.104Z,52.22
2018-08-30T11:05:08.833Z,52.02
2018-08-30T11:06:18.253Z,52.12
2018-08-30T11:07:27.402Z,52.22
2018-08-30T11:08:36.832Z,52.22
2018-08-30T11:09:46.521Z,52.22
2018-08-30T11:10:56.314Z,52.02
2018-08-30T11:12:05.751Z,52.12
2018-08-30T11:13:15.511Z,52.12
2018-08-30T11:14:25.708Z,52.12
2018-08-30T11:15:35.406Z,52.02
2018-08-30T11:16:44.587Z,52.02
2018-08-30T11:17:53.761Z,51.73
2018-08-30T11:19:02.933Z,51.73
2018-08-30T11:20:12.103Z,51.93
2018-08-30T11:21:21.531Z,51.73
2018-08-30T11:22:31.211Z,51.73
2018-08-30T11:23:40.694Z,51.83
2018-08-30T11:24:49.631Z,51.93
2018-08-30T11:25:59.067Z,52.02
2018-08-30T11:27:08.240Z,51.73
2018-08-30T11:28:18.253Z,51.83
2018-08-30T11:29:27.679Z,52.02
2018-08-30T11:30:37.109Z,51.93
2018-08-30T11:31:46.275Z,51.93
2018-08-30T11:32:55.729Z,51.93
2018-08-30T11:34:05.417Z,51.83
2018-08-30T11:35:14.581Z,51.93
2018-08-30T11:36:23.761Z,52.12
2018-08-30T11:37:33.014Z,52.02
2018-08-30T11:38:42.916Z,52.02
2018-08-30T11:39:52.098Z,51.73
2018-08-30T11:41:01.523Z,51.73
2018-08-30T11:42:10.968Z,51.73
2018-08-30T11:43:20.555Z,51.73
2018-08-30T11:44:30.729Z,51.64
2018-08-30T11:45:40.434Z,51.64
2018-08-30T11:46:50.113Z,51.64
2018-08-30T11:47:59.299Z,51.64
2018-08-30T11:49:08.997Z,51.93
2018-08-30T11:50:18.165Z,52.02
2018-08-30T11:51:27.344Z,51.93
2018-08-30T11:52:37.369Z,52.02
2018-08-30T11:53:47.038Z,51.83
2018-08-30T11:54:56.719Z,51.73
2018-08-30T11:56:05.644Z,51.83
2018-08-30T11:57:15.331Z,51.73
2018-08-30T11:58:24.271Z,51.64
2018-08-30T11:59:33.701Z,51.64
2018-08-30T12:00:43.738Z,51.83
2018-08-30T12:01:53.234Z,51.64
2018-08-30T12:03:02.902Z,51.64
2018-08-30T12:04:12.944Z,52.02
2018-08-30T12:05:22.357Z,52.02
2018-08-30T12:06:32.025Z,52.02
2018-08-30T12:07:41.497Z,52.12
2018-08-30T12:08:50.815Z,51.64
2018-08-30T12:09:59.973Z,52.12
2018-08-30T12:11:09.571Z,52.02
2018-08-30T12:12:19.012Z,51.93
2018-08-30T12:13:27.670Z,52.02
2018-08-30T12:14:37.082Z,52.12
2018-08-30T12:15:46.269Z,52.02
2018-08-30T12:16:55.692Z,52.02
2018-08-30T12:18:05.148Z,52.12
2018-08-30T12:19:14.072Z,52.02
2018-08-30T12:20:23.775Z,51.83
2018-08-30T12:21:33.071Z,51.93
2018-08-30T12:22:43.014Z,51.93
2018-08-30T12:23:52.433Z,52.12
2018-08-30T12:25:01.869Z,51.93
2018-08-30T12:26:11.544Z,51.93
2018-08-30T12:27:20.470Z,51.83
2018-08-30T12:28:29.791Z,52.02
2018-08-30T12:29:40.350Z,52.12
2018-08-30T12:30:50.131Z,51.83
2018-08-30T12:31:59.887Z,51.93
2018-08-30T12:33:09.574Z,51.83
2018-08-30T12:34:19.558Z,52.02
2018-08-30T12:35:28.979Z,51.83
2018-08-30T12:36:39.093Z,52.02
2018-08-30T12:37:49.363Z,51.93
2018-08-30T12:38:58.967Z,51.83
2018-08-30T12:40:08.637Z,51.83
2018-08-30T12:41:19.073Z,51.93
2018-08-30T12:42:28.347Z,51.83
2018-08-30T12:43:37.971Z,51.83
2018-08-30T12:44:47.168Z,51.83
2018-08-30T12:45:57.058Z,51.93
2018-08-30T12:47:06.062Z,51.83
2018-08-30T12:48:15.217Z,51.83
2018-08-30T12:49:25.302Z,51.93
2018-08-30T12:50:34.697Z,51.83
2018-08-30T12:51:46.246Z,52.12
2018-08-30T12:52:57.126Z,52.02
2018-08-30T12:54:08.115Z,52.12
2018-08-30T12:55:18.712Z,51.93
2018-08-30T12:56:28.294Z,51.93
2018-08-30T12:57:37.499Z,51.93
2018-08-30T12:58:48.596Z,51.83
2018-08-30T12:59:58.872Z,51.93
2018-08-30T13:01:09.274Z,51.83
2018-08-30T13:02:19.264Z,51.93
2018-08-30T13:03:29.478Z,51.83
2018-08-30T13:04:40.824Z,52.02
2018-08-30T13:05:51.725Z,51.83
2018-08-30T13:07:03.722Z,51.73
2018-08-30T13:08:15.360Z,51.54
2018-08-30T13:09:26.567Z,51.73
2018-08-30T13:10:38.031Z,51.35
2018-08-30T13:11:50.728Z,51.56
2018-08-30T13:13:01.642Z,51.15
2018-08-30T13:14:13.983Z,51.44
2018-08-30T13:15:25.662Z,51.44
2018-08-30T13:16:37.467Z,51.56
2018-08-30T13:17:48.084Z,51.44
2018-08-30T13:18:59.395Z,51.54
2018-08-30T13:20:11.108Z,51.54
2018-08-30T13:21:20.966Z,51.54
2018-08-30T13:22:31.934Z,51.47
2018-08-30T13:23:44.963Z,51.35
2018-08-30T13:24:55.375Z,51.47
2018-08-30T13:26:08.018Z,51.44
2018-08-30T13:27:19.103Z,51.47
2018-08-30T13:28:30.398Z,51.54
2018-08-30T13:29:41.268Z,51.66
2018-08-30T13:30:54.870Z,51.56
2018-08-30T13:32:07.545Z,51.35
2018-08-30T13:33:23.348Z,51.25
2018-08-30T13:34:35.552Z,51.47
2018-08-30T13:35:48.534Z,50.98
2018-08-30T13:37:00.976Z,51.44
2018-08-30T13:38:14.069Z,51.08
2018-08-30T13:39:28.747Z,51.47
2018-08-30T13:40:43.199Z,51.15
2018-08-30T13:41:57.993Z,51.35
2018-08-30T13:43:09.418Z,51.06
2018-08-30T13:44:19.724Z,51.35
2018-08-30T13:45:30.464Z,51.25
2018-08-30T13:46:42.387Z,51.08
2018-08-30T13:47:52.925Z,51.15
2018-08-30T13:49:06.619Z,51.18
2018-08-30T13:50:19.179Z,51.18
2018-08-30T13:51:29.518Z,51.08
2018-08-30T13:52:40.855Z,51.18
2018-08-30T13:53:54.605Z,51.15
2018-08-30T13:55:06.914Z,51.18
2018-08-30T13:56:18.867Z,51.47
2018-08-30T13:57:32.501Z,51.47
2018-08-30T13:58:47.327Z,51.06
2018-08-30T14:00:00.075Z,51.08
2018-08-30T14:01:15.710Z,51.37
2018-08-30T14:02:28.204Z,51.47
2018-08-30T14:03:37.661Z,51.44
2018-08-30T14:04:49.990Z,51.47
2018-08-30T14:06:02.170Z,51.47
2018-08-30T14:07:15.245Z,51.18
2018-08-30T14:08:27.747Z,51.15
2018-08-30T14:09:38.880Z,51.08
2018-08-30T14:10:50.796Z,51.25
2018-08-30T14:12:02.187Z,51.47
2018-08-30T14:13:14.540Z,51.47
2018-08-30T14:14:24.921Z,51.44
2018-08-30T14:15:36.737Z,51.44
2018-08-30T14:16:46.161Z,51.28
2018-08-30T14:17:55.952Z,51.08
2018-08-30T14:19:06.147Z,51.35
2018-08-30T14:20:16.185Z,51.28
2018-08-30T14:21:25.967Z,51.08
2018-08-30T14:22:35.377Z,51.44
2018-08-30T14:23:44.810Z,51.37
2018-08-30T14:24:55.085Z,51.37
2018-08-30T14:26:04.389Z,51.08
2018-08-30T14:27:13.898Z,51.47
2018-08-30T14:28:23.380Z,51.47
2018-08-30T14:29:33.605Z,51.25
2018-08-30T14:30:43.132Z,51.47
2018-08-30T14:31:52.562Z,51.37
2018-08-30T14:33:02.423Z,51.47
2018-08-30T14:34:12.944Z,51.47
2018-08-30T14:35:22.893Z,51.28
2018-08-30T14:36:32.327Z,51.28
2018-08-30T14:37:41.658Z,51.37
2018-08-30T14:38:51.200Z,51.28
2018-08-30T14:40:00.758Z,51.35
2018-08-30T14:41:10.801Z,51.37
2018-08-30T14:42:21.863Z,51.47
2018-08-30T14:43:31.240Z,51.37
2018-08-30T14:44:40.740Z,51.54
2018-08-30T14:45:50.185Z,51.44
2018-08-30T14:46:59.663Z,51.37
2018-08-30T14:48:09.404Z,51.28
2018-08-30T14:49:19.305Z,51.37
2018-08-30T14:50:28.438Z,51.28
2018-08-30T14:51:37.349Z,51.44
2018-08-30T14:52:47.178Z,51.37
2018-08-30T14:53:57.410Z,51.28
2018-08-30T14:55:07.182Z,51.28
2018-08-30T14:56:16.495Z,51.18
2018-08-30T14:57:26.377Z,51.56
2018-08-30T14:58:35.158Z,51.54
2018-08-30T14:59:44.344Z,51.44
2018-08-30T15:00:53.517Z,51.54